createdAt,value
2019-05-06T00:00:09.556Z,1006.77
2019-05-06T00:06:09.571Z,1006.80
2019-05-06T00:12:09.583Z,1006.84
2019-05-06T00:18:09.570Z,1006.84
2019-05-06T00:24:09.558Z,1006.80
2019-05-06T00:30:09.543Z,1006.78
2019-05-06T00:36:09.583Z,1006.86
2019-05-06T00:42:09.554Z,1006.94
2019-05-06T00:48:09.573Z,1006.91
2019-05-06T00:54:09.605Z,1006.95
2019-05-06T01:00:09.592Z,1006.87
2019-05-06T01:06:09.582Z,1006.91
2019-05-06T01:12:09.567Z,1006.93
2019-05-06T01:18:09.687Z,1006.99
2019-05-06T01:24:09.579Z,1007.01
2019-05-06T01:30:09.616Z,1007.03
2019-05-06T01:36:09.631Z,1007.04
2019-05-06T01:42:09.641Z,1007.08
2019-05-06T01:48:09.594Z,1007.11
2019-05-06T01:54:09.599Z,1007.12
2019-05-06T02:00:09.612Z,1007.12
2019-05-06T02:06:09.634Z,1007.23
2019-05-06T02:12:09.632Z,1007.14
2019-05-06T02:18:09.603Z,1007.19
2019-05-06T02:24:09.603Z,1007.29
2019-05-06T02:30:09.690Z,1007.21
2019-05-06T02:36:09.624Z,1007.26
2019-05-06T02:42:09.625Z,1007.21
2019-05-06T02:48:09.636Z,1007.28
2019-05-06T02:54:09.676Z,1007.28
2019-05-06T03:00:13.169Z,1007.31
2019-05-06T03:06:09.661Z,1007.33
2019-05-06T03:12:09.664Z,1007.33
2019-05-06T03:18:09.655Z,1007.32
2019-05-06T03:24:09.645Z,1007.41
2019-05-06T03:30:09.668Z,1007.49
2019-05-06T03:36:18.771Z,1007.42
2019-05-06T03:42:09.714Z,1007.44
2019-05-06T03:48:12.788Z,1007.44
2019-05-06T03:54:12.652Z,1007.43
2019-05-06T04:00:15.532Z,1007.51
2019-05-06T04:06:09.663Z,1007.52
2019-05-06T04:12:12.698Z,1007.51
2019-05-06T04:18:12.380Z,1007.58
2019-05-06T04:24:09.673Z,1007.62
2019-05-06T04:30:09.669Z,1007.66
2019-05-06T04:36:09.683Z,1007.71
2019-05-06T04:42:09.917Z,1007.87
2019-05-06T04:48:09.708Z,1007.78
2019-05-06T04:54:13.033Z,1007.94
2019-05-06T05:00:12.764Z,1007.96
2019-05-06T05:06:09.768Z,1008.02
2019-05-06T05:12:09.705Z,1008.01
2019-05-06T05:18:09.696Z,1008.07
2019-05-06T05:24:11.898Z,1008.18
2019-05-06T05:30:09.682Z,1008.26
2019-05-06T05:36:09.726Z,1008.42
2019-05-06T05:42:12.340Z,1008.44
2019-05-06T05:48:09.737Z,1008.41
2019-05-06T05:54:09.692Z,1008.51
2019-05-06T06:00:09.743Z,1008.55
2019-05-06T06:06:09.710Z,1008.53
2019-05-06T06:12:11.941Z,1008.63
2019-05-06T06:18:09.705Z,1008.56
2019-05-06T06:24:09.720Z,1008.62
2019-05-06T06:30:09.809Z,1008.60
2019-05-06T06:36:09.731Z,1008.62
2019-05-06T06:42:09.708Z,1008.61
2019-05-06T06:48:09.797Z,1008.48
2019-05-06T06:54:12.134Z,1008.55
2019-05-06T07:00:09.750Z,1008.53
2019-05-06T07:06:09.841Z,1008.58
2019-05-06T07:12:09.731Z,1008.52
2019-05-06T07:18:09.744Z,1008.55
2019-05-06T07:24:09.751Z,1008.59
2019-05-06T07:30:12.197Z,1008.59
2019-05-06T07:36:09.769Z,1008.56
2019-05-06T07:42:09.783Z,1008.60
2019-05-06T07:48:09.796Z,1008.65
2019-05-06T07:54:09.787Z,1008.60
2019-05-06T08:00:09.788Z,1008.67
2019-05-06T08:06:09.842Z,1008.62
2019-05-06T08:12:09.818Z,1008.68
2019-05-06T08:18:09.801Z,1008.68
2019-05-06T08:24:11.934Z,1008.59
2019-05-06T08:30:09.805Z,1008.56
2019-05-06T08:36:14.017Z,1008.51
2019-05-06T08:42:09.830Z,1008.56
2019-05-06T08:48:09.806Z,1008.50
2019-05-06T08:54:09.834Z,1008.50
2019-05-06T09:00:09.831Z,1008.39
2019-05-06T09:06:26.025Z,1008.45
2019-05-06T09:12:09.823Z,1008.49
2019-05-06T09:18:12.291Z,1008.41
2019-05-06T09:24:09.906Z,1008.48
2019-05-06T09:30:09.851Z,1008.44
2019-05-06T09:36:12.620Z,1008.38
2019-05-06T09:42:09.883Z,1008.48
2019-05-06T09:48:12.630Z,1008.44
2019-05-06T09:54:09.860Z,1008.48
2019-05-06T10:00:09.905Z,1008.46
2019-05-06T10:06:09.905Z,1008.46
2019-05-06T10:12:09.890Z,1008.39
2019-05-06T10:18:12.732Z,1008.41
2019-05-06T10:24:09.922Z,1008.49
2019-05-06T10:30:12.369Z,1008.52
2019-05-06T10:36:09.877Z,1008.40
2019-05-06T10:42:09.868Z,1008.31
2019-05-06T10:48:09.925Z,1008.32
2019-05-06T10:54:12.118Z,1008.32
2019-05-06T11:00:12.121Z,1008.32
2019-05-06T11:06:09.936Z,1008.27
2019-05-06T11:12:09.940Z,1008.20
2019-05-06T11:18:13.549Z,1008.25
2019-05-06T11:24:12.144Z,1008.20
2019-05-06T11:30:09.925Z,1008.30
2019-05-06T11:36:12.258Z,1008.15
2019-05-06T11:42:24.948Z,1008.14
2019-05-06T11:48:09.915Z,1008.08
2019-05-06T11:54:17.527Z,1008.02
2019-05-06T12:00:12.498Z,1008.10
2019-05-06T12:06:09.961Z,1008.10
2019-05-06T12:12:12.589Z,1008.04
2019-05-06T12:18:09.979Z,1007.97
2019-05-06T12:24:12.216Z,1008.01
2019-05-06T12:30:12.171Z,1007.98
2019-05-06T12:36:12.320Z,1007.95
2019-05-06T12:42:09.987Z,1007.96
2019-05-06T12:48:12.937Z,1007.96
2019-05-06T12:54:10.044Z,1007.87
2019-05-06T13:00:12.778Z,1007.83
2019-05-06T13:06:12.753Z,1007.83
2019-05-06T13:12:12.202Z,1007.80
2019-05-06T13:18:10.028Z,1007.78
2019-05-06T13:24:11.976Z,1007.75
2019-05-06T13:30:10.039Z,1007.76
2019-05-06T13:36:10.111Z,1007.74
2019-05-06T13:42:10.036Z,1007.71
2019-05-06T13:48:09.999Z,1007.76
2019-05-06T13:54:12.884Z,1007.71
2019-05-06T14:00:10.077Z,1007.74
2019-05-06T14:06:12.166Z,1007.68
2019-05-06T14:12:11.183Z,1007.58
2019-05-06T14:18:13.491Z,1007.47
2019-05-06T14:24:10.050Z,1007.44
2019-05-06T14:30:10.162Z,1007.37
2019-05-06T14:36:12.174Z,1007.41
2019-05-06T14:42:10.117Z,1007.39
2019-05-06T14:48:10.079Z,1007.42
2019-05-06T14:54:14.593Z,1007.45
2019-05-06T15:00:12.169Z,1007.46
2019-05-06T15:06:10.123Z,1007.50
2019-05-06T15:12:10.093Z,1007.53
2019-05-06T15:18:10.112Z,1007.53
2019-05-06T15:24:10.085Z,1007.59
2019-05-06T15:30:12.282Z,1007.57
2019-05-06T15:36:10.121Z,1007.57
2019-05-06T15:42:10.111Z,1007.54
2019-05-06T15:48:10.139Z,1007.48
2019-05-06T15:54:10.115Z,1007.59
2019-05-06T16:00:10.126Z,1007.52
2019-05-06T16:06:12.342Z,1007.50
2019-05-06T16:12:12.599Z,1007.54
2019-05-06T16:18:10.138Z,1007.58
2019-05-06T16:24:12.585Z,1007.46
2019-05-06T16:30:10.170Z,1007.52
2019-05-06T16:36:10.135Z,1007.45
2019-05-06T16:42:12.702Z,1007.49
2019-05-06T16:48:10.142Z,1007.45
2019-05-06T16:54:11.877Z,1007.47
2019-05-06T17:00:10.141Z,1007.52
2019-05-06T17:06:13.786Z,1007.54
2019-05-06T17:12:10.428Z,1007.53
2019-05-06T17:18:12.240Z,1007.62
2019-05-06T17:24:10.147Z,1007.60
2019-05-06T17:30:10.184Z,1007.53
2019-05-06T17:36:12.567Z,1007.57
2019-05-06T17:42:10.217Z,1007.60
2019-05-06T17:48:12.531Z,1007.63
2019-05-06T17:54:12.203Z,1007.69
2019-05-06T18:00:13.505Z,1007.76
2019-05-06T18:06:13.893Z,1007.72
2019-05-06T18:13:55.645Z,1007.73
2019-05-06T18:19:55.617Z,1007.71
2019-05-06T18:25:56.839Z,1007.76
2019-05-06T18:31:55.660Z,1007.84
2019-05-06T18:37:55.670Z,1007.85
2019-05-06T18:43:55.653Z,1007.83
2019-05-06T18:49:55.689Z,1007.86
2019-05-06T18:55:55.696Z,1007.90
2019-05-06T19:01:55.653Z,1007.85
2019-05-06T19:07:55.693Z,1007.89
2019-05-06T19:13:55.673Z,1007.99
2019-05-06T19:19:55.719Z,1008.10
2019-05-06T19:25:55.852Z,1008.23
2019-05-06T19:36:16.929Z,1008.24
2019-05-06T19:42:16.861Z,1008.30
2019-05-06T19:48:16.726Z,1008.22
2019-05-06T19:54:16.627Z,1008.19
2019-05-06T20:00:16.678Z,1008.26
2019-05-06T20:06:22.587Z,1008.19
2019-05-06T20:12:16.677Z,1008.13
2019-05-06T20:18:16.654Z,1008.17
2019-05-06T20:24:18.394Z,1008.12
2019-05-06T20:30:17.989Z,1008.08
2019-05-06T20:36:16.730Z,1008.05
2019-05-06T20:42:38.042Z,1007.99
2019-05-06T20:48:16.700Z,1007.99
2019-05-06T20:54:16.735Z,1007.89
2019-05-06T21:00:16.700Z,1007.93
2019-05-06T21:12:16.693Z,1008.04
2019-05-06T21:18:16.678Z,1007.93
2019-05-06T21:24:16.750Z,1008.05
2019-05-06T21:30:16.673Z,1008.07
2019-05-06T21:36:16.825Z,1008.11
2019-05-06T21:42:16.752Z,1008.09
2019-05-06T21:48:16.713Z,1008.05
2019-05-06T21:54:16.865Z,1008.03
2019-05-06T22:00:17.254Z,1007.98
2019-05-06T22:06:16.811Z,1007.93
2019-05-06T22:12:16.703Z,1007.95
2019-05-06T22:18:16.925Z,1008.03
2019-05-06T22:24:16.915Z,1007.92
2019-05-06T22:30:16.747Z,1007.97
2019-05-06T22:36:16.742Z,1008.00
2019-05-06T22:42:16.752Z,1007.90
2019-05-06T22:48:16.731Z,1007.87
2019-05-06T22:54:16.799Z,1007.86
2019-05-06T23:00:16.725Z,1007.86
2019-05-06T23:06:16.756Z,1007.79
2019-05-06T23:12:16.750Z,1007.81
2019-05-06T23:18:16.784Z,1007.85
2019-05-06T23:24:16.716Z,1007.81
2019-05-06T23:30:16.724Z,1007.82
2019-05-06T23:36:18.163Z,1007.82
2019-05-06T23:42:16.752Z,1007.85
2019-05-06T23:48:16.757Z,1007.84
2019-05-06T23:54:16.753Z,1007.86
